sensor_id;sensor_type;location;lat;lon;timestamp;pressure;altitude;pressure_sealevel;temperature;humidity
61384;BME280;63511;49.346;8.798;2023-12-04T00:01:10;100433.50;;;-0.53;78.51
61384;BME280;63511;49.346;8.798;2023-12-04T00:03:37;100437.78;;;-0.59;79.11
61384;BME280;63511;49.346;8.798;2023-12-04T00:06:03;100450.00;;;-0.24;78.39
61384;BME280;63511;49.346;8.798;2023-12-04T00:08:31;100434.88;;;-0.11;76.25
61384;BME280;63511;49.346;8.798;2023-12-04T00:10:58;100437.69;;;-0.08;75.65
61384;BME280;63511;49.346;8.798;2023-12-04T00:13:24;100446.13;;;0.01;75.63
61384;BME280;63511;49.346;8.798;2023-12-04T00:15:51;100436.19;;;0.01;75.03
61384;BME280;63511;49.346;8.798;2023-12-04T00:18:17;100430.53;;;0.02;74.67
61384;BME280;63511;49.346;8.798;2023-12-04T00:20:44;100399.91;;;-0.35;75.88
61384;BME280;63511;49.346;8.798;2023-12-04T00:23:10;100390.28;;;-0.55;77.35
61384;BME280;63511;49.346;8.798;2023-12-04T00:25:38;100403.34;;;-0.42;76.61
61384;BME280;63511;49.346;8.798;2023-12-04T00:28:04;100383.19;;;-0.52;76.85
61384;BME280;63511;49.346;8.798;2023-12-04T00:30:31;100386.31;;;-0.46;77.72
61384;BME280;63511;49.346;8.798;2023-12-04T00:32:57;100391.09;;;-0.40;77.43
61384;BME280;63511;49.346;8.798;2023-12-04T00:35:23;100358.94;;;-0.55;77.50
61384;BME280;63511;49.346;8.798;2023-12-04T00:37:50;100373.28;;;-0.52;77.59
61384;BME280;63511;49.346;8.798;2023-12-04T00:40:16;100363.25;;;-0.68;78.26
61384;BME280;63511;49.346;8.798;2023-12-04T00:42:44;100377.00;;;-0.56;77.11
61384;BME280;63511;49.346;8.798;2023-12-04T00:45:10;100389.66;;;-0.38;75.30
61384;BME280;63511;49.346;8.798;2023-12-04T00:47:37;100382.66;;;-0.57;76.41
61384;BME280;63511;49.346;8.798;2023-12-04T00:50:04;100374.31;;;-0.50;75.48
61384;BME280;63511;49.346;8.798;2023-12-04T00:52:30;100381.75;;;-0.50;75.61
61384;BME280;63511;49.346;8.798;2023-12-04T00:54:56;100384.00;;;-0.37;75.08
61384;BME280;63511;49.346;8.798;2023-12-04T00:57:23;100356.16;;;-0.65;77.90
61384;BME280;63511;49.346;8.798;2023-12-04T00:59:51;100342.66;;;-0.97;78.10
61384;BME280;63511;49.346;8.798;2023-12-04T01:02:18;100358.22;;;-0.91;78.81
61384;BME280;63511;49.346;8.798;2023-12-04T01:04:44;100370.16;;;-0.72;78.19
61384;BME280;63511;49.346;8.798;2023-12-04T01:07:10;100379.66;;;-0.54;76.97
61384;BME280;63511;49.346;8.798;2023-12-04T01:09:37;100376.19;;;-0.40;75.27
61384;BME280;63511;49.346;8.798;2023-12-04T01:12:04;100344.34;;;-0.74;76.02
61384;BME280;63511;49.346;8.798;2023-12-04T01:14:30;100336.78;;;-0.83;77.17
61384;BME280;63511;49.346;8.798;2023-12-04T01:16:59;100368.66;;;-0.56;76.17
61384;BME280;63511;49.346;8.798;2023-12-04T01:19:25;100360.19;;;-0.58;76.86
61384;BME280;63511;49.346;8.798;2023-12-04T01:21:52;100343.25;;;-0.69;77.90
61384;BME280;63511;49.346;8.798;2023-12-04T01:24:18;100358.94;;;-0.55;76.32
61384;BME280;63511;49.346;8.798;2023-12-04T01:26:44;100337.91;;;-0.65;77.12
61384;BME280;63511;49.346;8.798;2023-12-04T01:29:11;100328.19;;;-0.71;75.96
61384;BME280;63511;49.346;8.798;2023-12-04T01:31:37;100335.31;;;-0.74;76.88
61384;BME280;63511;49.346;8.798;2023-12-04T01:34:05;100319.97;;;-0.86;77.28
61384;BME280;63511;49.346;8.798;2023-12-04T01:36:32;100325.91;;;-1.13;78.96
61384;BME280;63511;49.346;8.798;2023-12-04T01:38:58;100342.38;;;-0.70;77.34
61384;BME280;63511;49.346;8.798;2023-12-04T01:41:25;100356.13;;;-0.58;76.81
61384;BME280;63511;49.346;8.798;2023-12-04T01:43:51;100343.25;;;-0.69;78.74
61384;BME280;63511;49.346;8.798;2023-12-04T01:46:19;100335.91;;;-0.83;78.73
61384;BME280;63511;49.346;8.798;2023-12-04T01:48:46;100326.00;;;-0.91;78.59
61384;BME280;63511;49.346;8.798;2023-12-04T01:51:14;100335.31;;;-0.74;78.52
61384;BME280;63511;49.346;8.798;2023-12-04T01:53:40;100350.41;;;-0.50;77.18
61384;BME280;63511;49.346;8.798;2023-12-04T01:56:08;100311.84;;;-0.92;76.95
61384;BME280;63511;49.346;8.798;2023-12-04T01:58:35;100306.38;;;-0.96;78.87
61384;BME280;63511;49.346;8.798;2023-12-04T02:01:01;100338.78;;;-0.58;77.85
61384;BME280;63511;49.346;8.798;2023-12-04T02:03:28;100316.06;;;-0.54;76.73
61384;BME280;63511;49.346;8.798;2023-12-04T02:05:54;100320.94;;;-0.69;77.94
61384;BME280;63511;49.346;8.798;2023-12-04T02:08:25;100297.31;;;-0.89;78.32
61384;BME280;63511;49.346;8.798;2023-12-04T02:10:51;100316.22;;;-0.82;79.90
61384;BME280;63511;49.346;8.798;2023-12-04T02:13:18;100323.91;;;-0.65;78.88
61384;BME280;63511;49.346;8.798;2023-12-04T02:15:45;100329.84;;;-0.49;78.55
61384;BME280;63511;49.346;8.798;2023-12-04T02:18:12;100305.19;;;-0.70;77.30
61384;BME280;63511;49.346;8.798;2023-12-04T02:20:39;100281.97;;;-1.00;78.36
61384;BME280;63511;49.346;8.798;2023-12-04T02:23:05;100313.09;;;-0.58;78.55
61384;BME280;63511;49.346;8.798;2023-12-04T02:25:33;100316.66;;;-0.63;78.49
61384;BME280;63511;49.346;8.798;2023-12-04T02:28:01;100321.19;;;-0.29;76.14
61384;BME280;63511;49.346;8.798;2023-12-04T02:30:28;100282.97;;;-0.84;77.64
61384;BME280;63511;49.346;8.798;2023-12-04T02:32:57;100304.63;;;-0.67;78.39
61384;BME280;63511;49.346;8.798;2023-12-04T02:35:24;100312.94;;;-0.37;76.07
61384;BME280;63511;49.346;8.798;2023-12-04T02:37:54;100302.72;;;-0.24;75.32
61384;BME280;63511;49.346;8.798;2023-12-04T02:40:23;100294.19;;;-0.42;75.43
61384;BME280;63511;49.346;8.798;2023-12-04T02:42:51;100294.47;;;-0.32;75.01
61384;BME280;63511;49.346;8.798;2023-12-04T02:45:18;100261.75;;;-0.66;76.65
61384;BME280;63511;49.346;8.798;2023-12-04T02:47:44;100243.22;;;-1.00;77.30
61384;BME280;63511;49.346;8.798;2023-12-04T02:50:10;100232.56;;;-1.29;78.29
61384;BME280;63511;49.346;8.798;2023-12-04T02:52:37;100259.88;;;-1.06;80.00
61384;BME280;63511;49.346;8.798;2023-12-04T02:55:04;100272.88;;;-0.86;78.57
61384;BME280;63511;49.346;8.798;2023-12-04T02:57:30;100261.41;;;-0.92;77.98
61384;BME280;63511;49.346;8.798;2023-12-04T02:59:58;100258.59;;;-0.72;77.08
61384;BME280;63511;49.346;8.798;2023-12-04T03:02:24;100259.91;;;-0.53;76.72
61384;BME280;63511;49.346;8.798;2023-12-04T03:04:51;100242.94;;;-0.57;75.78
61384;BME280;63511;49.346;8.798;2023-12-04T03:07:17;100223.41;;;-1.00;78.95
61384;BME280;63511;49.346;8.798;2023-12-04T03:09:45;100240.63;;;-0.78;80.21
61384;BME280;63511;49.346;8.798;2023-12-04T03:12:11;100224.22;;;-0.62;77.23
61384;BME280;63511;49.346;8.798;2023-12-04T03:14:38;100226.97;;;-0.52;76.57
61384;BME280;63511;49.346;8.798;2023-12-04T03:17:05;100228.63;;;-0.37;76.46
61384;BME280;63511;49.346;8.798;2023-12-04T03:19:32;100222.63;;;-0.46;76.15
61384;BME280;63511;49.346;8.798;2023-12-04T03:21:59;100207.78;;;-0.69;77.49
61384;BME280;63511;49.346;8.798;2023-12-04T03:24:25;100214.81;;;-0.65;77.54
61384;BME280;63511;49.346;8.798;2023-12-04T03:26:52;100187.53;;;-0.88;77.99
61384;BME280;63511;49.346;8.798;2023-12-04T03:29:18;100225.13;;;-0.46;77.93
61384;BME280;63511;49.346;8.798;2023-12-04T03:31:45;100218.53;;;-0.38;76.49
61384;BME280;63511;49.346;8.798;2023-12-04T03:34:13;100186.19;;;-0.70;76.63
61384;BME280;63511;49.346;8.798;2023-12-04T03:36:39;100208.50;;;-0.47;76.94
61384;BME280;63511;49.346;8.798;2023-12-04T03:39:05;100196.88;;;-0.55;78.33
61384;BME280;63511;49.346;8.798;2023-12-04T03:41:32;100202.84;;;-0.30;76.26
61384;BME280;63511;49.346;8.798;2023-12-04T03:43:58;100176.16;;;-0.78;77.70
61384;BME280;63511;49.346;8.798;2023-12-04T03:46:25;100192.13;;;-0.38;77.11
61384;BME280;63511;49.346;8.798;2023-12-04T03:48:51;100198.06;;;-0.29;76.32
61384;BME280;63511;49.346;8.798;2023-12-04T03:51:19;100194.28;;;-0.25;76.50
61384;BME280;63511;49.346;8.798;2023-12-04T03:53:45;100190.47;;;-0.15;75.81
61384;BME280;63511;49.346;8.798;2023-12-04T03:56:12;100185.19;;;-0.18;75.07
61384;BME280;63511;49.346;8.798;2023-12-04T03:58:38;100158.03;;;-0.48;76.35
61384;BME280;63511;49.346;8.798;2023-12-04T04:01:05;100151.31;;;-0.71;78.20
61384;BME280;63511;49.346;8.798;2023-12-04T04:03:31;100161.38;;;-0.47;77.69
61384;BME280;63511;49.346;8.798;2023-12-04T04:05:58;100165.78;;;-0.45;76.78
61384;BME280;63511;49.346;8.798;2023-12-04T04:08:25;100173.03;;;-0.46;77.34
61384;BME280;63511;49.346;8.798;2023-12-04T04:10:52;100173.81;;;-0.31;76.26
61384;BME280;63511;49.346;8.798;2023-12-04T04:13:18;100174.75;;;-0.38;77.79
61384;BME280;63511;49.346;8.798;2023-12-04T04:15:45;100159.28;;;-0.51;77.87
61384;BME280;63511;49.346;8.798;2023-12-04T04:18:11;100160.59;;;-0.62;78.95
61384;BME280;63511;49.346;8.798;2023-12-04T04:20:38;100181.78;;;-0.34;79.16
61384;BME280;63511;49.346;8.798;2023-12-04T04:23:04;100172.94;;;-0.16;76.58
61384;BME280;63511;49.346;8.798;2023-12-04T04:25:32;100188.56;;;-0.02;75.96
61384;BME280;63511;49.346;8.798;2023-12-04T04:27:58;100180.97;;;-0.03;75.50
61384;BME280;63511;49.346;8.798;2023-12-04T04:30:25;100170.44;;;-0.32;78.20
61384;BME280;63511;49.346;8.798;2023-12-04T04:32:51;100185.63;;;-0.06;76.34
61384;BME280;63511;49.346;8.798;2023-12-04T04:35:17;100162.34;;;-0.38;77.92
61384;BME280;63511;49.346;8.798;2023-12-04T04:37:43;100187.22;;;0.09;76.20
61384;BME280;63511;49.346;8.798;2023-12-04T04:40:09;100185.66;;;-0.13;77.84
61384;BME280;63511;49.346;8.798;2023-12-04T04:42:37;100152.84;;;-0.26;76.63
61384;BME280;63511;49.346;8.798;2023-12-04T04:45:04;100178.00;;;-0.08;76.15
61384;BME280;63511;49.346;8.798;2023-12-04T04:47:31;100150.66;;;-0.39;77.46
61384;BME280;63511;49.346;8.798;2023-12-04T04:49:57;100166.22;;;-0.17;77.46
61384;BME280;63511;49.346;8.798;2023-12-04T04:52:24;100159.56;;;-0.25;79.41
61384;BME280;63511;49.346;8.798;2023-12-04T04:54:50;100173.44;;;-0.12;78.29
61384;BME280;63511;49.346;8.798;2023-12-04T04:57:16;100154.44;;;-0.27;78.94
61384;BME280;63511;49.346;8.798;2023-12-04T04:59:44;100167.09;;;-0.17;78.45
61384;BME280;63511;49.346;8.798;2023-12-04T05:02:11;100169.97;;;0.11;76.94
61384;BME280;63511;49.346;8.798;2023-12-04T05:04:37;100151.88;;;0.12;76.07
61384;BME280;63511;49.346;8.798;2023-12-04T05:07:03;100177.53;;;0.35;75.53
61384;BME280;63511;49.346;8.798;2023-12-04T05:09:30;100160.03;;;0.26;75.58
61384;BME280;63511;49.346;8.798;2023-12-04T05:11:56;100151.09;;;0.35;74.83
61384;BME280;63511;49.346;8.798;2023-12-04T05:14:23;100147.56;;;0.33;74.74
61384;BME280;63511;49.346;8.798;2023-12-04T05:16:51;100136.28;;;-0.19;77.29
61384;BME280;63511;49.346;8.798;2023-12-04T05:19:17;100128.78;;;-0.50;78.67
61384;BME280;63511;49.346;8.798;2023-12-04T05:21:43;100130.13;;;-0.22;77.72
61384;BME280;63511;49.346;8.798;2023-12-04T05:24:10;100136.84;;;-0.21;77.42
61384;BME280;63511;49.346;8.798;2023-12-04T05:26:36;100152.59;;;0.11;75.94
61384;BME280;63511;49.346;8.798;2023-12-04T05:29:03;100145.03;;;-0.07;77.42
61384;BME280;63511;49.346;8.798;2023-12-04T05:31:29;100124.53;;;-0.13;76.36
61384;BME280;63511;49.346;8.798;2023-12-04T05:33:57;100116.66;;;-0.40;78.52
61384;BME280;63511;49.346;8.798;2023-12-04T05:36:23;100132.28;;;-0.10;76.71
61384;BME280;63511;49.346;8.798;2023-12-04T05:38:50;100127.72;;;-0.14;77.26
61384;BME280;63511;49.346;8.798;2023-12-04T05:41:18;100118.91;;;-0.03;75.97
61384;BME280;63511;49.346;8.798;2023-12-04T05:43:45;100119.97;;;-0.17;76.51
61384;BME280;63511;49.346;8.798;2023-12-04T05:46:11;100107.88;;;-0.29;77.02
61384;BME280;63511;49.346;8.798;2023-12-04T05:48:38;100129.72;;;-0.03;76.57
61384;BME280;63511;49.346;8.798;2023-12-04T05:51:06;100108.09;;;-0.35;77.43
61384;BME280;63511;49.346;8.798;2023-12-04T05:53:32;100117.47;;;-0.17;76.63
61384;BME280;63511;49.346;8.798;2023-12-04T05:55:59;100104.19;;;-0.49;78.30
61384;BME280;63511;49.346;8.798;2023-12-04T05:58:25;100116.34;;;-0.43;78.86
61384;BME280;63511;49.346;8.798;2023-12-04T06:00:51;100126.50;;;-0.33;77.79
61384;BME280;63511;49.346;8.798;2023-12-04T06:03:18;100114.75;;;-0.43;78.93
61384;BME280;63511;49.346;8.798;2023-12-04T06:05:44;100136.13;;;-0.05;76.88
61384;BME280;63511;49.346;8.798;2023-12-04T06:08:12;100131.31;;;-0.19;76.26
61384;BME280;63511;49.346;8.798;2023-12-04T06:10:39;100129.94;;;-0.39;79.00
61384;BME280;63511;49.346;8.798;2023-12-04T06:13:05;100136.03;;;-0.13;76.73
61384;BME280;63511;49.346;8.798;2023-12-04T06:15:32;100133.50;;;-0.22;77.98
61384;BME280;63511;49.346;8.798;2023-12-04T06:17:58;100135.75;;;-0.16;76.34
61384;BME280;63511;49.346;8.798;2023-12-04T06:20:25;100103.69;;;-0.53;77.10
61384;BME280;63511;49.346;8.798;2023-12-04T06:22:51;100115.75;;;-0.56;77.60
61384;BME280;63511;49.346;8.798;2023-12-04T06:25:20;100137.56;;;-0.22;76.68
61384;BME280;63511;49.346;8.798;2023-12-04T06:27:47;100114.25;;;-0.47;76.93
61384;BME280;63511;49.346;8.798;2023-12-04T06:30:14;100102.09;;;-0.53;77.55
61384;BME280;63511;49.346;8.798;2023-12-04T06:32:40;100110.97;;;-0.39;77.39
61384;BME280;63511;49.346;8.798;2023-12-04T06:35:07;100105.38;;;-0.45;77.70
61384;BME280;63511;49.346;8.798;2023-12-04T06:37:34;100089.84;;;-0.51;76.75
61384;BME280;63511;49.346;8.798;2023-12-04T06:40:01;100082.47;;;-0.74;77.99
61384;BME280;63511;49.346;8.798;2023-12-04T06:42:30;100109.31;;;-0.31;77.28
61384;BME280;63511;49.346;8.798;2023-12-04T06:44:56;100118.97;;;-0.26;77.10
61384;BME280;63511;49.346;8.798;2023-12-04T06:47:23;100110.91;;;-0.01;75.99
61384;BME280;63511;49.346;8.798;2023-12-04T06:49:49;100058.22;;;-0.61;78.39
61384;BME280;63511;49.346;8.798;2023-12-04T06:52:16;100053.13;;;-0.47;79.03
61384;BME280;63511;49.346;8.798;2023-12-04T06:54:42;100052.41;;;-0.61;79.47
61384;BME280;63511;49.346;8.798;2023-12-04T06:57:09;100066.34;;;-0.39;78.68
61384;BME280;63511;49.346;8.798;2023-12-04T06:59:37;100062.50;;;-0.28;77.69
61384;BME280;63511;49.346;8.798;2023-12-04T07:02:03;100032.66;;;-0.53;79.92
61384;BME280;63511;49.346;8.798;2023-12-04T07:04:30;100060.28;;;0.06;75.97
61384;BME280;63511;49.346;8.798;2023-12-04T07:06:57;100041.53;;;0.17;75.19
61384;BME280;63511;49.346;8.798;2023-12-04T07:09:26;100048.97;;;0.17;76.38
61384;BME280;63511;49.346;8.798;2023-12-04T07:11:52;100040.41;;;0.22;73.60
61384;BME280;63511;49.346;8.798;2023-12-04T07:14:19;100063.28;;;0.35;73.93
61384;BME280;63511;49.346;8.798;2023-12-04T07:16:47;100064.38;;;0.70;74.26
61384;BME280;63511;49.346;8.798;2023-12-04T07:19:14;100039.22;;;0.18;76.39
61384;BME280;63511;49.346;8.798;2023-12-04T07:21:41;100038.28;;;0.33;75.52
61384;BME280;63511;49.346;8.798;2023-12-04T07:24:08;100052.63;;;0.60;75.58
61384;BME280;63511;49.346;8.798;2023-12-04T07:26:35;100046.09;;;0.69;75.36
61384;BME280;63511;49.346;8.798;2023-12-04T07:29:01;100043.97;;;0.90;72.67
61384;BME280;63511;49.346;8.798;2023-12-04T07:31:27;100034.13;;;0.74;75.56
61384;BME280;63511;49.346;8.798;2023-12-04T07:33:55;100039.16;;;0.58;76.51
61384;BME280;63511;49.346;8.798;2023-12-04T07:36:22;100027.59;;;0.50;76.94
61384;BME280;63511;49.346;8.798;2023-12-04T07:38:49;100027.00;;;0.28;78.14
61384;BME280;63511;49.346;8.798;2023-12-04T07:41:17;100029.13;;;0.17;78.87
61384;BME280;63511;49.346;8.798;2023-12-04T07:43:43;100051.38;;;0.72;78.20
61384;BME280;63511;49.346;8.798;2023-12-04T07:46:09;100039.38;;;1.10;75.57
61384;BME280;63511;49.346;8.798;2023-12-04T07:48:36;100027.69;;;1.09;74.95
61384;BME280;63511;49.346;8.798;2023-12-04T07:51:05;100013.41;;;0.49;76.55
61384;BME280;63511;49.346;8.798;2023-12-04T07:53:32;100034.50;;;0.13;79.25
61384;BME280;63511;49.346;8.798;2023-12-04T07:56:00;100047.41;;;0.66;77.97
61384;BME280;63511;49.346;8.798;2023-12-04T07:58:27;100008.09;;;0.70;77.30
61384;BME280;63511;49.346;8.798;2023-12-04T08:00:54;100021.78;;;1.00;75.98
61384;BME280;63511;49.346;8.798;2023-12-04T08:03:21;100019.81;;;0.47;77.42
61384;BME280;63511;49.346;8.798;2023-12-04T08:05:48;100039.47;;;0.94;77.15
61384;BME280;63511;49.346;8.798;2023-12-04T08:08:16;100022.47;;;1.40;74.41
61384;BME280;63511;49.346;8.798;2023-12-04T08:10:42;100019.88;;;1.47;72.26
61384;BME280;63511;49.346;8.798;2023-12-04T08:13:09;100006.16;;;1.09;74.80
61384;BME280;63511;49.346;8.798;2023-12-04T08:15:35;100032.63;;;1.59;74.69
61384;BME280;63511;49.346;8.798;2023-12-04T08:18:02;100014.19;;;1.65;70.91
61384;BME280;63511;49.346;8.798;2023-12-04T08:20:28;100020.34;;;1.60;73.86
61384;BME280;63511;49.346;8.798;2023-12-04T08:22:55;100009.50;;;1.94;72.16
61384;BME280;63511;49.346;8.798;2023-12-04T08:25:22;99984.91;;;1.54;72.93
61384;BME280;63511;49.346;8.798;2023-12-04T08:27:49;100001.13;;;1.77;73.94
61384;BME280;63511;49.346;8.798;2023-12-04T08:30:16;99976.41;;;1.61;73.29
61384;BME280;63511;49.346;8.798;2023-12-04T08:32:42;99986.75;;;1.14;75.90
61384;BME280;63511;49.346;8.798;2023-12-04T08:35:09;99992.03;;;1.17;75.40
61384;BME280;63511;49.346;8.798;2023-12-04T08:37:35;100004.19;;;1.31;75.21
61384;BME280;63511;49.346;8.798;2023-12-04T08:40:02;100004.22;;;1.48;74.78
61384;BME280;63511;49.346;8.798;2023-12-04T08:42:30;100012.72;;;2.02;72.70
61384;BME280;63511;49.346;8.798;2023-12-04T08:44:56;100008.84;;;2.31;70.43
61384;BME280;63511;49.346;8.798;2023-12-04T08:47:23;99998.59;;;2.28;70.75
61384;BME280;63511;49.346;8.798;2023-12-04T08:49:49;99991.00;;;2.18;71.57
61384;BME280;63511;49.346;8.798;2023-12-04T08:52:15;99993.94;;;2.23;70.54
61384;BME280;63511;49.346;8.798;2023-12-04T08:54:42;100004.66;;;2.04;71.96
61384;BME280;63511;49.346;8.798;2023-12-04T08:57:08;99971.41;;;1.78;68.26
61384;BME280;63511;49.346;8.798;2023-12-04T08:59:36;99979.78;;;1.79;68.06
61384;BME280;63511;49.346;8.798;2023-12-04T09:02:03;99975.38;;;1.59;67.77
61384;BME280;63511;49.346;8.798;2023-12-04T09:04:30;99978.75;;;1.68;68.11
61384;BME280;63511;49.346;8.798;2023-12-04T09:06:55;99954.47;;;1.48;68.64
61384;BME280;63511;49.346;8.798;2023-12-04T09:09:21;99959.13;;;1.80;66.42
61384;BME280;63511;49.346;8.798;2023-12-04T09:11:48;99956.91;;;2.00;65.90
61384;BME280;63511;49.346;8.798;2023-12-04T09:14:14;99949.16;;;1.88;66.42
61384;BME280;63511;49.346;8.798;2023-12-04T09:16:42;99979.25;;;2.26;64.14
61384;BME280;63511;49.346;8.798;2023-12-04T09:19:09;99981.91;;;2.27;63.79
61384;BME280;63511;49.346;8.798;2023-12-04T09:21:35;99984.25;;;2.26;63.24
61384;BME280;63511;49.346;8.798;2023-12-04T09:24:02;99999.16;;;2.43;63.84
61384;BME280;63511;49.346;8.798;2023-12-04T09:26:29;100007.81;;;2.82;62.30
61384;BME280;63511;49.346;8.798;2023-12-04T09:28:55;99998.97;;;2.94;61.94
61384;BME280;63511;49.346;8.798;2023-12-04T09:31:22;99986.50;;;2.59;64.83
61384;BME280;63511;49.346;8.798;2023-12-04T09:33:50;99962.97;;;2.38;64.61
61384;BME280;63511;49.346;8.798;2023-12-04T09:36:16;99962.47;;;1.97;66.22
61384;BME280;63511;49.346;8.798;2023-12-04T09:38:43;99986.59;;;2.24;65.51
61384;BME280;63511;49.346;8.798;2023-12-04T09:41:10;99969.09;;;1.97;65.95
61384;BME280;63511;49.346;8.798;2023-12-04T09:43:38;99962.00;;;2.10;65.32
61384;BME280;63511;49.346;8.798;2023-12-04T09:46:06;99985.09;;;2.35;63.76
61384;BME280;63511;49.346;8.798;2023-12-04T09:48:33;99966.66;;;2.24;65.04
61384;BME280;63511;49.346;8.798;2023-12-04T09:51:01;99955.56;;;2.12;66.02
61384;BME280;63511;49.346;8.798;2023-12-04T09:53:28;99966.78;;;2.43;65.83
61384;BME280;63511;49.346;8.798;2023-12-04T09:55:56;99979.16;;;2.60;65.69
61384;BME280;63511;49.346;8.798;2023-12-04T09:58:26;99980.94;;;2.88;65.48
61384;BME280;63511;49.346;8.798;2023-12-04T10:00:53;99975.16;;;2.98;61.92
61384;BME280;63511;49.346;8.798;2023-12-04T10:03:20;99974.75;;;3.21;61.64
61384;BME280;63511;49.346;8.798;2023-12-04T10:05:46;99953.28;;;3.04;63.86
61384;BME280;63511;49.346;8.798;2023-12-04T10:08:14;99963.75;;;2.91;65.03
61384;BME280;63511;49.346;8.798;2023-12-04T10:10:42;99939.78;;;2.39;64.41
61384;BME280;63511;49.346;8.798;2023-12-04T10:13:08;99957.75;;;2.62;64.35
61384;BME280;63511;49.346;8.798;2023-12-04T10:15:35;99954.06;;;2.67;63.82
61384;BME280;63511;49.346;8.798;2023-12-04T10:18:18;99949.88;;;2.85;61.97
61384;BME280;63511;49.346;8.798;2023-12-04T10:20:51;99936.50;;;2.57;62.57
61384;BME280;63511;49.346;8.798;2023-12-04T10:23:19;99940.13;;;2.69;64.87
61384;BME280;63511;49.346;8.798;2023-12-04T10:25:45;99953.47;;;2.97;62.16
61384;BME280;63511;49.346;8.798;2023-12-04T10:28:12;99930.91;;;2.68;63.01
61384;BME280;63511;49.346;8.798;2023-12-04T10:30:39;99937.19;;;2.92;62.83
61384;BME280;63511;49.346;8.798;2023-12-04T10:33:05;99928.09;;;2.74;64.08
61384;BME280;63511;49.346;8.798;2023-12-04T10:35:33;99928.97;;;2.74;62.97
61384;BME280;63511;49.346;8.798;2023-12-04T10:38:01;99939.56;;;2.90;61.99
61384;BME280;63511;49.346;8.798;2023-12-04T10:40:30;99907.66;;;2.78;63.67
61384;BME280;63511;49.346;8.798;2023-12-04T10:43:11;99926.81;;;2.87;64.21
61384;BME280;63511;49.346;8.798;2023-12-04T10:45:38;99920.31;;;2.98;60.79
61384;BME280;63511;49.346;8.798;2023-12-04T10:48:04;99916.53;;;3.12;61.91
61384;BME280;63511;49.346;8.798;2023-12-04T10:50:31;99914.25;;;3.23;62.71
61384;BME280;63511;49.346;8.798;2023-12-04T10:52:58;99907.13;;;3.36;61.59
61384;BME280;63511;49.346;8.798;2023-12-04T10:55:26;99919.94;;;3.50;62.67
61384;BME280;63511;49.346;8.798;2023-12-04T10:57:54;99913.31;;;3.50;60.58
61384;BME280;63511;49.346;8.798;2023-12-04T11:00:21;99914.13;;;3.40;61.07
61384;BME280;63511;49.346;8.798;2023-12-04T11:02:47;99908.25;;;3.21;61.21
61384;BME280;63511;49.346;8.798;2023-12-04T11:05:15;99889.72;;;3.09;62.49
61384;BME280;63511;49.346;8.798;2023-12-04T11:07:44;99887.41;;;2.83;65.53
61384;BME280;63511;49.346;8.798;2023-12-04T11:10:10;99883.09;;;2.91;64.02
61384;BME280;63511;49.346;8.798;2023-12-04T11:12:37;99875.44;;;2.71;66.00
61384;BME280;63511;49.346;8.798;2023-12-04T11:15:07;99873.88;;;2.63;66.76
61384;BME280;63511;49.346;8.798;2023-12-04T11:17:35;99883.94;;;3.00;66.66
61384;BME280;63511;49.346;8.798;2023-12-04T11:20:04;99866.59;;;3.02;65.67
61384;BME280;63511;49.346;8.798;2023-12-04T11:22:34;99845.34;;;2.59;66.54
61384;BME280;63511;49.346;8.798;2023-12-04T11:25:04;99829.66;;;2.51;69.61
61384;BME280;63511;49.346;8.798;2023-12-04T11:27:32;99841.97;;;2.77;68.19
61384;BME280;63511;49.346;8.798;2023-12-04T11:30:00;99836.44;;;2.71;67.64
61384;BME280;63511;49.346;8.798;2023-12-04T11:32:29;99853.50;;;2.85;67.84
61384;BME280;63511;49.346;8.798;2023-12-04T11:34:58;99830.47;;;2.69;69.09
61384;BME280;63511;49.346;8.798;2023-12-04T11:37:27;99836.03;;;2.85;69.83
61384;BME280;63511;49.346;8.798;2023-12-04T11:39:54;99819.94;;;2.63;71.01
61384;BME280;63511;49.346;8.798;2023-12-04T11:42:22;99804.84;;;2.34;71.07
61384;BME280;63511;49.346;8.798;2023-12-04T11:44:48;99827.75;;;2.58;72.00
61384;BME280;63511;49.346;8.798;2023-12-04T11:47:15;99825.19;;;2.66;70.71
61384;BME280;63511;49.346;8.798;2023-12-04T11:49:43;99807.16;;;2.69;71.22
61384;BME280;63511;49.346;8.798;2023-12-04T11:52:09;99817.03;;;2.96;71.05
61384;BME280;63511;49.346;8.798;2023-12-04T11:57:23;99785.03;;;2.82;71.64
61384;BME280;63511;49.346;8.798;2023-12-04T11:59:51;99801.75;;;3.02;71.07
61384;BME280;63511;49.346;8.798;2023-12-04T12:02:17;99779.84;;;2.70;73.67
61384;BME280;63511;49.346;8.798;2023-12-04T12:04:45;99795.53;;;3.07;72.28
61384;BME280;63511;49.346;8.798;2023-12-04T12:07:12;99775.06;;;2.63;74.80
61384;BME280;63511;49.346;8.798;2023-12-04T12:09:39;99770.75;;;2.89;74.03
61384;BME280;63511;49.346;8.798;2023-12-04T12:12:06;99736.75;;;2.52;74.87
61384;BME280;63511;49.346;8.798;2023-12-04T12:14:32;99725.53;;;2.20;75.83
61384;BME280;63511;49.346;8.798;2023-12-04T12:16:59;99749.31;;;2.54;76.40
61384;BME280;63511;49.346;8.798;2023-12-04T12:19:26;99751.34;;;2.77;76.31
61384;BME280;63511;49.346;8.798;2023-12-04T12:21:54;99751.47;;;2.97;76.18
61384;BME280;63511;49.346;8.798;2023-12-04T12:24:20;99728.50;;;2.91;74.96
61384;BME280;63511;49.346;8.798;2023-12-04T12:26:47;99703.34;;;2.32;76.70
61384;BME280;63511;49.346;8.798;2023-12-04T12:29:14;99734.03;;;2.60;77.73
61384;BME280;63511;49.346;8.798;2023-12-04T12:31:40;99726.22;;;2.84;76.11
61384;BME280;63511;49.346;8.798;2023-12-04T12:34:06;99715.13;;;2.62;77.64
61384;BME280;63511;49.346;8.798;2023-12-04T12:36:33;99710.19;;;2.34;77.85
61384;BME280;63511;49.346;8.798;2023-12-04T12:39:01;99706.63;;;2.78;75.95
61384;BME280;63511;49.346;8.798;2023-12-04T12:41:28;99697.25;;;2.76;75.74
61384;BME280;63511;49.346;8.798;2023-12-04T12:43:55;99690.38;;;2.73;75.40
61384;BME280;63511;49.346;8.798;2023-12-04T12:46:22;99676.16;;;2.72;75.71
61384;BME280;63511;49.346;8.798;2023-12-04T12:48:48;99660.44;;;2.63;76.58
61384;BME280;63511;49.346;8.798;2023-12-04T12:51:14;99670.22;;;2.80;76.54
61384;BME280;63511;49.346;8.798;2023-12-04T12:53:43;99669.50;;;3.10;75.55
61384;BME280;63511;49.346;8.798;2023-12-04T12:56:11;99657.94;;;2.92;75.96
61384;BME280;63511;49.346;8.798;2023-12-04T12:58:37;99660.50;;;3.12;75.00